Time;durP1;ratioP1;P1;durP2;ratioP2;P2;SDS_P1;SDS_P2;PMS_P1;PMS_P2;Temp;Humidity;BMP_temperature;BMP_pressure;BME280_temperature;BME280_humidity;BME280_pressure;Samples;Min_cycle;Max_cycle;Signal;HPM_P1;HPM_P2
2022/11/19 00:01:58;;;;;;;21.95;16.55;;;;;;;7.02;100.00;100550.88;5053711;28;20029;-69
2022/11/19 00:04:25;;;;;;;23.75;18.20;;;;;;;6.99;100.00;100558.50;5069170;28;20036;-70
2022/11/19 00:06:50;;;;;;;21.23;17.80;;;;;;;6.90;100.00;100553.38;5068471;28;20028;-69
2022/11/19 00:09:16;;;;;;;22.73;17.15;;;;;;;6.85;100.00;100555.00;5055103;28;20424;-69
2022/11/19 00:14:25;;;;;;;24.50;18.05;;;;;;;6.76;100.00;100561.63;5054469;28;20040;-69
2022/11/19 00:16:50;;;;;;;24.73;18.50;;;;;;;6.78;100.00;100559.56;5063944;28;20431;-70
2022/11/19 00:19:17;;;;;;;21.45;16.70;;;;;;;6.70;100.00;100563.28;5074970;28;20032;-69
2022/11/19 00:21:54;;;;;;;23.13;17.02;;;;;;;6.71;100.00;100568.47;5074650;28;20132;-69
2022/11/19 00:24:21;;;;;;;24.50;17.55;;;;;;;6.68;100.00;100566.19;5060827;28;20492;-69
2022/11/19 00:26:46;;;;;;;24.10;17.88;;;;;;;6.68;100.00;100568.06;5062719;28;20074;-68
2022/11/19 00:29:12;;;;;;;22.65;17.73;;;;;;;6.72;100.00;100574.69;5074760;28;20372;-69
2022/11/19 00:31:37;;;;;;;22.83;17.65;;;;;;;6.68;100.00;100574.25;5067222;28;20104;-68
2022/11/19 00:34:03;;;;;;;23.60;18.55;;;;;;;6.66;100.00;100578.19;5056298;28;20033;-68
2022/11/19 00:36:28;;;;;;;23.80;17.38;;;;;;;6.57;100.00;100569.50;5036383;28;20394;-69
2022/11/19 00:38:54;;;;;;;24.30;17.70;;;;;;;6.57;100.00;100581.06;5055037;28;20033;-69
2022/11/19 00:41:19;;;;;;;25.95;17.90;;;;;;;6.57;100.00;100575.69;5066410;28;20025;-68
2022/11/19 00:43:48;;;;;;;22.35;17.15;;;;;;;6.60;100.00;100579.00;5072177;28;20082;-68
2022/11/19 00:46:25;;;;;;;23.52;17.35;;;;;;;6.50;100.00;100580.22;5063990;28;20021;-70
2022/11/19 00:48:52;;;;;;;22.35;16.73;;;;;;;6.46;100.00;100581.69;5063297;28;20119;-69
2022/11/19 00:51:19;;;;;;;24.80;17.00;;;;;;;6.34;100.00;100586.84;5054202;28;20032;-68
2022/11/19 00:53:44;;;;;;;22.25;16.83;;;;;;;6.35;100.00;100587.66;5072710;28;20060;-69
2022/11/19 00:56:14;;;;;;;26.52;17.02;;;;;;;6.42;100.00;100580.44;5054694;28;20123;-68
2022/11/19 00:58:40;;;;;;;22.50;16.50;;;;;;;6.31;100.00;100589.06;5036459;28;20043;-69
2022/11/19 01:01:06;;;;;;;22.60;16.33;;;;;;;6.31;100.00;100591.75;5058175;28;20115;-70
2022/11/19 01:03:33;;;;;;;22.50;16.58;;;;;;;6.24;100.00;100591.75;5073069;28;20055;-70
2022/11/19 01:05:58;;;;;;;19.55;14.90;;;;;;;6.23;100.00;100583.91;5063290;28;20029;-69
2022/11/19 01:08:24;;;;;;;21.50;16.33;;;;;;;6.18;100.00;100597.94;5054266;28;20029;-70
2022/11/19 01:10:50;;;;;;;21.20;16.02;;;;;;;6.18;100.00;100593.41;5063287;28;20066;-69
2022/11/19 01:13:33;;;;;;;22.65;16.55;;;;;;;6.15;100.00;100601.03;5074023;28;20024;-69
2022/11/19 01:16:06;;;;;;;23.85;16.92;;;;;;;6.18;100.00;100601.44;5057493;28;20387;-68
2022/11/19 01:22:59;;;;;;;24.80;17.38;;;;;;;6.26;100.00;100607.69;5061680;28;20131;-69
2022/11/19 01:25:41;;;;;;;23.40;16.95;;;;;;;6.18;100.00;100619.44;5055205;28;20040;-70
2022/11/19 01:28:08;;;;;;;23.00;18.05;;;;;;;6.11;100.00;100619.41;5073934;28;20093;-68
2022/11/19 01:30:39;;;;;;;25.95;17.75;;;;;;;6.17;100.00;100623.16;5072602;28;20099;-69
2022/11/19 01:33:04;;;;;;;25.77;18.77;;;;;;;6.16;100.00;100626.84;5057172;28;20078;-69
2022/11/19 01:35:29;;;;;;;24.80;18.25;;;;;;;6.12;100.00;100626.44;5053135;28;20447;-70
2022/11/19 01:37:55;;;;;;;23.95;18.38;;;;;;;6.14;100.00;100632.44;5057928;28;20399;-68
2022/11/19 01:40:20;;;;;;;23.63;17.92;;;;;;;6.05;100.00;100633.63;5067221;28;20037;-69
2022/11/19 01:42:50;;;;;;;25.23;18.65;;;;;;;6.03;100.00;100633.03;5058604;28;20233;-68
2022/11/19 01:45:32;;;;;;;25.02;18.23;;;;;;;6.09;100.00;100632.22;5063665;28;20044;-69
2022/11/19 01:48:13;;;;;;;24.40;18.05;;;;;;;6.10;100.00;100639.25;5066787;28;20040;-70
2022/11/19 01:50:48;;;;;;;24.33;17.92;;;;;;;6.08;100.00;100648.53;5052795;28;20040;-68
2022/11/19 01:53:14;;;;;;;27.65;18.15;;;;;;;6.01;100.00;100638.59;5035174;28;20384;-69
2022/11/19 01:55:41;;;;;;;22.55;18.40;;;;;;;5.91;100.00;100645.34;5054204;28;20033;-70
2022/11/19 01:58:07;;;;;;;25.58;19.23;;;;;;;5.88;100.00;100648.44;5073198;28;20028;-68
2022/11/19 02:00:33;;;;;;;26.23;18.38;;;;;;;5.87;100.00;100644.88;5058943;28;20039;-69
2022/11/19 02:02:58;;;;;;;23.77;18.00;;;;;;;5.82;100.00;100641.97;5058280;28;20041;-68
2022/11/19 02:05:25;;;;;;;22.98;17.10;;;;;;;5.80;100.00;100650.25;5066252;28;20100;-70
2022/11/19 02:07:53;;;;;;;20.10;17.27;;;;;;;5.77;100.00;100656.00;5064239;28;20056;-70
2022/11/19 02:10:25;;;;;;;23.98;17.83;;;;;;;5.77;100.00;100650.63;5067079;28;20107;-70
2022/11/19 02:13:16;;;;;;;21.58;17.30;;;;;;;5.82;100.00;100656.22;5054404;28;20025;-68
2022/11/19 02:15:59;;;;;;;22.67;16.92;;;;;;;5.87;100.00;100661.00;5055676;28;20032;-68
2022/11/19 02:18:31;;;;;;;20.75;16.88;;;;;;;5.82;100.00;100658.91;5067041;28;20060;-68
2022/11/19 02:21:06;;;;;;;20.38;15.88;;;;;;;5.82;100.00;100658.09;5055651;28;20048;-70
2022/11/19 02:23:58;;;;;;;20.77;17.10;;;;;;;5.77;100.00;100660.56;5057455;28;20028;-70
2022/11/19 02:26:46;;;;;;;;;;;;;;;5.90;100.00;100657.09;5056826;28;20108;-69
2022/11/19 02:29:40;;;;;;;21.80;15.02;;;;;;;5.70;100.00;100655.13;5072006;28;20287;-68
2022/11/19 02:32:18;;;;;;;21.77;15.57;;;;;;;5.65;100.00;100657.59;5063390;28;20435;-69
2022/11/19 02:34:54;;;;;;;21.65;15.32;;;;;;;5.64;100.00;100661.28;5052674;28;20431;-69
2022/11/19 02:37:43;;;;;;;19.55;14.68;;;;;;;5.56;100.00;100658.78;5052474;28;20039;-67
2022/11/19 02:40:18;;;;;;;19.77;13.05;;;;;;;5.52;100.00;100658.31;5051884;28;20029;-69
2022/11/19 02:42:53;;;;;;;17.05;12.40;;;;;;;5.47;100.00;100656.22;5063500;28;20036;-68
2022/11/19 02:45:43;;;;;;;15.85;12.52;;;;;;;5.46;100.00;100659.09;5072467;28;20033;-70
2022/11/19 02:48:12;;;;;;;16.02;12.15;;;;;;;5.43;100.00;100670.22;5046324;28;20041;-69
2022/11/19 02:50:51;;;;;;;16.42;12.95;;;;;;;5.47;100.00;100666.16;5054744;28;20111;-69
2022/11/19 02:53:17;;;;;;;16.05;12.00;;;;;;;5.43;100.00;100671.06;5056718;28;20037;-68
2022/11/19 03:06:41;;;;;;;14.43;11.10;;;;;;;5.23;100.00;100681.66;5052303;28;20044;-69
2022/11/19 03:09:07;;;;;;;13.73;10.88;;;;;;;5.24;100.00;100683.31;5049108;28;20020;-67
2022/11/19 03:11:32;;;;;;;12.30;10.65;;;;;;;5.21;100.00;100690.91;5060875;28;20059;-68
2022/11/19 03:17:14;;;;;;;12.70;10.48;;;;;;;5.17;100.00;100695.84;5055768;28;20099;-68
2022/11/19 03:19:50;;;;;;;13.20;10.13;;;;;;;5.12;100.00;100695.59;5061382;28;20042;-67
2022/11/19 03:22:22;;;;;;;11.98;10.00;;;;;;;5.11;100.00;100692.06;5069356;28;20040;-68
2022/11/19 03:25:11;;;;;;;12.27;9.90;;;;;;;5.09;100.00;100690.63;5056135;28;20041;-66
2022/11/19 03:27:54;;;;;;;14.13;10.65;;;;;;;5.06;100.00;100688.31;5054320;28;20028;-68
2022/11/19 03:30:19;;;;;;;14.05;10.85;;;;;;;5.04;100.00;100701.94;5057841;28;20034;-69
2022/11/19 03:32:51;;;;;;;16.70;11.38;;;;;;;4.95;100.00;100701.22;5070480;28;20107;-68
2022/11/19 03:35:23;;;;;;;13.82;12.13;;;;;;;4.93;100.00;100705.91;5052936;28;20029;-69
2022/11/19 03:37:51;;;;;;;;;;;;;;;5.11;100.00;100702.78;5056833;28;20128;-69
2022/11/19 03:40:18;;;;;;;14.48;11.05;;;;;;;4.97;100.00;100707.22;5059586;28;19920;-69
2022/11/19 03:42:47;;;;;;;16.33;11.77;;;;;;;4.94;100.00;100699.53;5069370;28;20099;-67
2022/11/19 03:45:18;;;;;;;15.15;12.45;;;;;;;4.90;100.00;100694.75;5060632;28;20447;-68
2022/11/19 03:47:46;;;;;;;14.45;12.13;;;;;;;4.90;100.00;100698.25;5065660;28;20029;-68
2022/11/19 03:50:30;;;;;;;16.23;13.07;;;;;;;4.91;100.00;100704.47;5051565;28;20063;-69
2022/11/19 03:52:57;;;;;;;16.23;12.77;;;;;;;4.86;100.00;100704.19;5058428;28;20476;-68
2022/11/19 03:55:30;;;;;;;15.70;12.30;;;;;;;4.87;100.00;100712.06;5062916;28;20021;-67
2022/11/19 03:58:01;;;;;;;16.55;12.80;;;;;;;4.86;100.00;100713.09;5042651;28;20032;-69
2022/11/19 04:00:26;;;;;;;18.52;13.80;;;;;;;4.93;100.00;100711.28;5052327;28;20033;-67
2022/11/19 04:02:52;;;;;;;19.05;14.15;;;;;;;4.90;100.00;100713.53;5051172;28;20051;-67
2022/11/19 04:05:17;;;;;;;18.73;14.30;;;;;;;4.89;100.00;100711.84;5060253;28;20047;-67
2022/11/19 04:07:42;;;;;;;17.23;14.02;;;;;;;4.95;100.00;100711.94;5070620;28;20048;-68
2022/11/19 04:10:08;;;;;;;16.98;13.95;;;;;;;4.92;100.00;100719.53;5067442;28;20460;-68
2022/11/19 04:12:33;;;;;;;19.55;13.88;;;;;;;4.91;100.00;100720.56;5062598;28;20020;-69
2022/11/19 04:14:58;;;;;;;18.33;14.32;;;;;;;4.79;100.00;100722.91;5071916;28;20029;-69
2022/11/19 04:17:24;;;;;;;19.23;14.32;;;;;;;4.84;100.00;100725.03;5073625;28;20035;-66
2022/11/19 04:19:49;;;;;;;19.25;15.13;;;;;;;4.78;100.00;100721.25;5073721;28;20528;-67
2022/11/19 04:22:14;;;;;;;21.60;15.52;;;;;;;4.75;100.00;100727.81;5062822;28;20083;-67
2022/11/19 04:24:39;;;;;;;19.95;15.73;;;;;;;4.77;100.00;100739.19;5055639;28;20044;-68
2022/11/19 04:27:05;;;;;;;21.67;17.30;;;;;;;4.74;100.00;100742.25;5074064;28;20028;-69
2022/11/19 04:29:30;;;;;;;21.17;17.25;;;;;;;4.66;100.00;100742.34;5056145;28;20418;-67
2022/11/19 04:31:55;;;;;;;22.42;16.42;;;;;;;4.67;100.00;100746.69;5060034;28;20032;-67
2022/11/19 04:34:20;;;;;;;22.42;17.70;;;;;;;4.63;100.00;100750.75;5055039;28;20030;-67
2022/11/19 04:36:46;;;;;;;22.33;16.52;;;;;;;4.58;100.00;100747.84;5055380;28;20056;-67
2022/11/19 04:39:11;;;;;;;24.38;17.45;;;;;;;4.57;100.00;100754.19;5068692;28;20375;-69
2022/11/19 04:41:38;;;;;;;22.65;17.17;;;;;;;4.53;100.00;100752.91;5065238;28;20029;-67
2022/11/19 04:44:03;;;;;;;23.00;18.45;;;;;;;4.44;100.00;100753.03;5051377;28;20510;-68
2022/11/19 04:46:29;;;;;;;22.98;17.67;;;;;;;4.37;100.00;100752.09;5073703;28;20040;-67
2022/11/19 04:48:54;;;;;;;23.02;17.60;;;;;;;4.30;100.00;100751.19;5068987;28;20111;-67
2022/11/19 04:51:20;;;;;;;22.50;18.17;;;;;;;4.24;100.00;100757.28;5063583;28;20037;-68
2022/11/19 04:53:45;;;;;;;21.48;16.92;;;;;;;4.23;100.00;100755.63;5066340;28;20433;-70
2022/11/19 04:56:10;;;;;;;23.17;17.65;;;;;;;4.23;100.00;100764.50;5067729;28;20361;-70
2022/11/19 04:58:36;;;;;;;24.58;18.48;;;;;;;4.20;100.00;100751.47;5058177;28;20061;-71
2022/11/19 05:01:01;;;;;;;23.70;18.65;;;;;;;4.31;100.00;100757.38;5063649;28;20036;-68
2022/11/19 05:03:27;;;;;;;22.27;16.77;;;;;;;4.38;100.00;100769.84;5062806;28;20052;-68
2022/11/19 05:05:52;;;;;;;24.95;19.15;;;;;;;4.27;100.00;100767.63;5065435;28;20050;-71
2022/11/19 05:08:17;;;;;;;23.38;17.95;;;;;;;4.33;100.00;100772.22;5064319;28;20028;-71
2022/11/19 05:10:43;;;;;;;26.02;18.58;;;;;;;4.30;100.00;100771.78;5070698;28;20028;-68
2022/11/19 05:13:09;;;;;;;22.42;17.08;;;;;;;4.33;100.00;100776.78;5073210;28;20040;-70
2022/11/19 05:15:34;;;;;;;25.00;18.42;;;;;;;4.27;100.00;100789.06;5066781;28;20033;-69
2022/11/19 05:17:59;;;;;;;23.80;19.38;;;;;;;4.27;100.00;100789.06;5061334;28;20046;-70
2022/11/19 05:20:24;;;;;;;25.73;19.23;;;;;;;4.28;100.00;100789.91;5059739;28;20032;-68
2022/11/19 05:22:50;;;;;;;26.45;18.95;;;;;;;4.26;100.00;100793.59;5060495;28;20059;-68
2022/11/19 05:25:15;;;;;;;24.17;18.65;;;;;;;4.27;100.00;100789.06;5060957;28;20033;-70
2022/11/19 05:27:40;;;;;;;24.35;19.40;;;;;;;4.28;100.00;100788.03;5057816;28;20047;-70
2022/11/19 05:30:06;;;;;;;24.70;19.00;;;;;;;4.27;100.00;100794.41;5065232;28;20043;-71
2022/11/19 05:32:32;;;;;;;23.88;18.58;;;;;;;4.24;100.00;100792.09;5059879;28;20032;-67
2022/11/19 05:34:57;;;;;;;25.80;18.60;;;;;;;4.23;100.00;100798.50;5069060;28;20028;-68
2022/11/19 05:37:22;;;;;;;25.25;19.77;;;;;;;4.28;100.00;100806.78;5053246;28;20028;-69
2022/11/19 05:39:47;;;;;;;25.20;19.70;;;;;;;4.31;100.00;100801.06;5063254;28;20376;-70
2022/11/19 05:42:13;;;;;;;25.15;19.95;;;;;;;4.34;100.00;100800.69;5059861;28;20107;-68
2022/11/19 05:44:38;;;;;;;27.00;20.33;;;;;;;4.32;100.00;100808.09;5064437;28;20031;-69
2022/11/19 05:47:03;;;;;;;24.45;19.73;;;;;;;4.32;100.00;100813.47;5040969;28;20090;-67
2022/11/19 05:49:29;;;;;;;24.73;19.42;;;;;;;4.29;100.00;100808.47;5069060;28;20046;-73
2022/11/19 05:51:54;;;;;;;25.83;20.20;;;;;;;4.31;100.00;100805.59;5048300;28;20025;-69
2022/11/19 05:54:19;;;;;;;25.60;20.58;;;;;;;4.34;100.00;100815.94;5064136;28;20078;-72
2022/11/19 05:56:44;;;;;;;24.00;20.65;;;;;;;4.34;100.00;100819.44;5067261;28;20404;-66
2022/11/19 05:59:10;;;;;;;24.63;20.50;;;;;;;4.34;100.00;100815.94;5055389;28;20455;-67
2022/11/19 06:01:35;;;;;;;29.23;20.98;;;;;;;4.36;100.00;100824.63;5062606;28;20036;-67
2022/11/19 06:04:00;;;;;;;26.02;20.08;;;;;;;4.38;100.00;100825.28;5060927;28;20029;-70
2022/11/19 06:06:26;;;;;;;25.70;19.35;;;;;;;4.37;100.00;100832.47;5053422;28;20061;-68
2022/11/19 06:08:51;;;;;;;27.23;21.50;;;;;;;4.36;100.00;100830.84;5060536;28;20104;-66
2022/11/19 06:14:01;;;;;;;23.50;19.73;;;;;;;4.32;100.00;100831.34;5056261;28;20036;-68
2022/11/19 06:16:27;;;;;;;31.23;20.48;;;;;;;4.35;100.00;100829.16;5059685;28;20033;-67
2022/11/19 06:18:53;;;;;;;27.92;20.73;;;;;;;4.30;100.00;100834.22;5060980;28;20193;-68
2022/11/19 06:21:18;;;;;;;29.38;21.63;;;;;;;4.23;100.00;100852.06;5052601;28;20032;-68
2022/11/19 06:23:43;;;;;;;25.98;21.02;;;;;;;4.20;100.00;100845.22;5035715;28;20040;-70
2022/11/19 06:26:09;;;;;;;25.60;20.48;;;;;;;4.16;100.00;100856.47;5056762;28;20054;-71
2022/11/19 06:28:35;;;;;;;26.67;22.38;;;;;;;4.15;100.00;100863.69;5058723;28;20036;-70
2022/11/19 06:31:00;;;;;;;30.35;22.20;;;;;;;4.17;100.00;100858.16;5046862;28;20032;-68
2022/11/19 06:33:26;;;;;;;27.15;22.20;;;;;;;4.13;100.00;100860.34;5064237;28;20116;-68
2022/11/19 06:35:51;;;;;;;27.35;22.63;;;;;;;4.16;100.00;100869.88;5067510;28;20483;-70
2022/11/19 06:38:17;;;;;;;30.10;23.63;;;;;;;4.15;100.00;100876.25;5061150;28;20495;-70
2022/11/19 06:40:44;;;;;;;28.60;22.80;;;;;;;4.07;100.00;100880.66;5052465;28;20041;-68
2022/11/19 06:43:10;;;;;;;28.70;23.70;;;;;;;4.01;100.00;100873.34;5052050;28;20040;-68
2022/11/19 06:45:35;;;;;;;28.90;23.17;;;;;;;3.97;100.00;100874.75;5052204;28;20036;-70
2022/11/19 06:48:00;;;;;;;33.22;25.42;;;;;;;3.89;100.00;100877.47;5051461;28;20029;-71
2022/11/19 06:50:26;;;;;;;29.58;23.77;;;;;;;3.90;100.00;100877.28;5052795;28;20452;-70
2022/11/19 06:52:51;;;;;;;33.03;26.23;;;;;;;3.91;100.00;100872.78;5052338;28;20052;-68
2022/11/19 06:55:16;;;;;;;32.85;24.52;;;;;;;3.83;100.00;100881.69;5052453;28;20107;-69
2022/11/19 06:57:41;;;;;;;31.52;24.90;;;;;;;3.84;100.00;100885.22;5036394;28;20041;-69
2022/11/19 07:00:07;;;;;;;30.80;24.95;;;;;;;3.84;100.00;100885.22;5053904;28;20043;-70
2022/11/19 07:02:33;;;;;;;31.48;25.42;;;;;;;3.84;100.00;100885.22;5050122;28;20487;-69
2022/11/19 07:04:58;;;;;;;33.13;25.35;;;;;;;3.85;100.00;100881.50;5052159;28;20069;-69
2022/11/19 07:07:23;;;;;;;32.08;24.92;;;;;;;3.78;100.00;100891.28;5052092;28;20357;-69
2022/11/19 07:09:49;;;;;;;31.58;24.92;;;;;;;3.77;100.00;100894.97;5063413;28;20029;-71
2022/11/19 07:12:14;;;;;;;30.73;24.10;;;;;;;3.71;100.00;100902.72;5071165;28;20038;-68
2022/11/19 07:14:39;;;;;;;34.08;25.70;;;;;;;3.69;100.00;100902.03;5072231;28;20456;-71
2022/11/19 07:17:05;;;;;;;33.45;25.42;;;;;;;3.64;100.00;100899.09;5072062;28;20029;-69
2022/11/19 07:19:30;;;;;;;34.33;25.65;;;;;;;3.69;100.00;100910.06;5064863;28;20040;-68
2022/11/19 07:21:55;;;;;;;34.90;25.52;;;;;;;3.70;100.00;100919.78;5072014;28;20120;-70
2022/11/19 07:24:21;;;;;;;36.28;26.80;;;;;;;3.67;100.00;100912.09;5072188;28;20036;-68
2022/11/19 07:26:46;;;;;;;35.65;26.98;;;;;;;3.66;100.00;100920.31;5072173;28;20107;-70
2022/11/19 07:29:14;;;;;;;37.63;25.70;;;;;;;3.62;100.00;100917.13;5056667;28;20028;-74
2022/11/19 07:31:42;;;;;;;34.20;24.48;;;;;;;3.62;100.00;100917.13;5051952;28;20040;-69
2022/11/19 07:34:09;;;;;;;37.53;25.33;;;;;;;3.60;100.00;100932.56;5051798;28;20594;-72
2022/11/19 07:36:35;;;;;;;34.95;26.00;;;;;;;3.58;100.00;100933.72;5052072;28;20051;-69
2022/11/19 07:39:01;;;;;;;38.13;28.30;;;;;;;3.55;100.00;100933.09;5051132;28;20468;-69
2022/11/19 07:44:10;;;;;;;36.00;24.83;;;;;;;3.54;100.00;100941.28;5054027;28;20067;-71
2022/11/19 07:46:35;;;;;;;36.22;26.10;;;;;;;3.51;100.00;100938.97;5037806;28;20025;-71
2022/11/19 07:49:01;;;;;;;34.67;26.52;;;;;;;3.47;100.00;100943.00;5060491;28;20369;-76
2022/11/19 07:51:26;;;;;;;34.90;25.50;;;;;;;3.48;100.00;100950.03;5055743;28;20124;-72
2022/11/19 07:53:54;;;;;;;35.40;26.08;;;;;;;3.49;100.00;100946.34;5055573;28;20036;-70
2022/11/19 07:56:19;;;;;;;34.78;25.00;;;;;;;3.48;100.00;100952.69;5055412;28;20029;-69
2022/11/19 07:58:45;;;;;;;35.80;25.55;;;;;;;3.50;100.00;100948.84;5055231;28;20158;-70
2022/11/19 08:01:17;;;;;;;37.83;26.75;;;;;;;3.49;100.00;100951.69;5073026;28;20059;-70
2022/11/19 08:03:45;;;;;;;39.30;26.77;;;;;;;3.46;100.00;100946.69;5075511;28;20029;-71
2022/11/19 08:06:11;;;;;;;36.05;26.08;;;;;;;3.44;100.00;100959.41;5057112;28;20035;-72
2022/11/19 08:08:37;;;;;;;37.58;26.27;;;;;;;3.44;100.00;100959.41;5057373;28;20033;-71
2022/11/19 08:11:04;;;;;;;37.22;26.38;;;;;;;3.42;100.00;100961.44;5054886;28;20029;-72
2022/11/19 08:13:30;;;;;;;37.00;26.90;;;;;;;3.40;100.00;100969.63;5037369;28;20032;-70
2022/11/19 08:15:59;;;;;;;36.97;28.35;;;;;;;3.40;100.00;100968.78;5054974;28;20108;-71
2022/11/19 08:18:25;;;;;;;37.00;27.23;;;;;;;3.40;100.00;100968.78;5054564;28;20032;-71
2022/11/19 08:20:50;;;;;;;42.22;29.90;;;;;;;3.41;100.00;100970.44;5071510;28;20048;-71
2022/11/19 08:23:15;;;;;;;52.35;38.85;;;;;;;3.41;100.00;100968.59;5075114;28;20069;-74
2022/11/19 08:25:43;;;;;;;41.70;27.70;;;;;;;3.36;100.00;100968.31;5075099;28;20031;-77
2022/11/19 08:28:09;;;;;;;37.40;27.45;;;;;;;3.36;100.00;100973.66;5074835;28;20033;-72
2022/11/19 08:30:35;;;;;;;37.83;26.85;;;;;;;3.40;100.00;100968.78;5073312;28;20052;-71
2022/11/19 08:33:00;;;;;;;38.10;27.95;;;;;;;3.43;100.00;100974.63;5074867;28;20119;-72
2022/11/19 08:35:26;;;;;;;39.83;26.38;;;;;;;3.46;100.00;100979.63;5074634;28;20029;-73
2022/11/19 08:37:51;;;;;;;38.30;27.98;;;;;;;3.48;100.00;100977.59;5056953;28;20028;-70
2022/11/19 08:40:17;;;;;;;37.50;26.33;;;;;;;3.54;100.00;100973.41;5074308;28;20383;-71
2022/11/19 08:43:00;;;;;;;36.28;25.33;;;;;;;3.55;100.00;100980.44;5051332;28;20032;-78
2022/11/19 08:45:30;;;;;;;35.33;25.92;;;;;;;3.59;100.00;100980.91;5056600;28;20075;-78
2022/11/19 08:47:57;;;;;;;35.85;26.33;;;;;;;3.60;100.00;100983.41;5074376;28;20467;-77
2022/11/19 08:50:23;;;;;;;36.83;25.67;;;;;;;3.62;100.00;100989.41;5074459;28;20033;-76
2022/11/19 08:52:56;;;;;;;34.63;25.98;;;;;;;3.66;100.00;100995.25;5073364;28;20040;-77
2022/11/19 08:55:22;;;;;;;37.55;26.77;;;;;;;3.62;100.00;100989.41;5055330;28;20036;-72
2022/11/19 08:57:47;;;;;;;38.92;29.35;;;;;;;3.64;100.00;100998.09;5074626;28;20468;-76
2022/11/19 09:00:13;;;;;;;34.03;24.83;;;;;;;3.62;100.00;100994.75;5074586;28;20036;-74
2022/11/19 09:02:38;;;;;;;33.45;24.10;;;;;;;3.61;100.00;101003.81;5052482;28;20039;-72
2022/11/19 09:05:04;;;;;;;49.92;33.95;;;;;;;3.59;100.00;100999.63;5054379;28;20029;-74
2022/11/19 09:07:29;;;;;;;43.08;30.48;;;;;;;3.61;100.00;101001.13;5054056;28;20388;-75
2022/11/19 09:09:55;;;;;;;58.30;38.88;;;;;;;3.65;100.00;100998.94;5053635;28;20135;-76
2022/11/19 09:12:20;;;;;;;40.05;27.70;;;;;;;3.65;100.00;100999.75;5071250;28;20028;-74
2022/11/19 09:14:45;;;;;;;49.60;33.92;;;;;;;3.64;100.00;101008.81;5061488;28;20033;-72
2022/11/19 09:17:10;;;;;;;44.17;30.77;;;;;;;3.61;100.00;101008.31;5054083;28;20025;-76
2022/11/19 09:19:36;;;;;;;46.30;30.85;;;;;;;3.61;100.00;101013.66;5055211;28;20032;-72
2022/11/19 09:22:01;;;;;;;78.43;46.67;;;;;;;3.62;100.00;101008.13;5061693;28;20120;-74
2022/11/19 09:24:26;;;;;;;38.33;26.98;;;;;;;3.59;100.00;101016.50;5054762;28;20044;-73
2022/11/19 09:26:51;;;;;;;34.80;25.63;;;;;;;3.53;100.00;101017.22;5053867;28;20025;-74
2022/11/19 09:29:17;;;;;;;43.00;27.63;;;;;;;3.49;100.00;101016.75;5057913;28;20075;-76
2022/11/19 09:31:42;;;;;;;41.92;29.38;;;;;;;3.51;100.00;101019.25;5053368;28;20476;-76
2022/11/19 09:34:07;;;;;;;37.20;24.92;;;;;;;3.53;100.00;101022.56;5052866;28;20037;-73
2022/11/19 09:36:32;;;;;;;36.58;26.75;;;;;;;3.50;100.00;101022.91;5053514;28;20028;-74
2022/11/19 09:38:58;;;;;;;40.63;26.55;;;;;;;3.57;100.00;101028.41;5059601;28;20526;-72
2022/11/19 09:41:44;;;;;;;38.10;24.70;;;;;;;3.59;100.00;101032.56;5068304;28;20024;-72
2022/11/19 09:44:44;;;;;;;35.25;24.65;;;;;;;3.57;100.00;101039.94;5073459;28;20060;-72
2022/11/19 09:47:16;;;;;;;33.45;23.25;;;;;;;3.51;100.00;101037.97;5055298;28;20480;-73
2022/11/19 09:49:47;;;;;;;36.42;22.63;;;;;;;3.48;100.00;101049.00;5073411;28;20471;-75
2022/11/19 09:52:18;;;;;;;34.33;24.87;;;;;;;3.48;100.00;101054.38;5062660;28;20024;-72
2022/11/19 09:54:47;;;;;;;35.05;24.02;;;;;;;3.50;100.00;101057.69;5073239;28;20286;-75
2022/11/19 09:57:19;;;;;;;34.20;23.63;;;;;;;3.47;100.00;101056.22;5072960;28;20150;-74
2022/11/19 09:59:46;;;;;;;34.80;22.83;;;;;;;3.44;100.00;101061.06;5073523;28;20040;-74
2022/11/19 10:02:17;;;;;;;36.22;25.60;;;;;;;3.33;100.00;101060.41;5052763;28;20057;-76
2022/11/19 10:04:44;;;;;;;37.42;25.08;;;;;;;3.30;100.00;101058.09;5053185;28;20043;-72
2022/11/19 10:07:34;;;;;;;36.58;25.30;;;;;;;3.35;100.00;101055.75;5053156;28;20029;-74
2022/11/19 10:10:11;;;;;;;37.47;26.08;;;;;;;3.31;100.00;101054.41;5053209;28;20036;-73
2022/11/19 10:13:13;;;;;;;34.83;23.90;;;;;;;3.37;100.00;101067.09;5052805;28;20039;-75
2022/11/19 10:15:47;;;;;;;37.42;26.40;;;;;;;3.34;100.00;101064.78;5052802;28;20029;-73
2022/11/19 10:18:23;;;;;;;38.97;24.90;;;;;;;3.30;100.00;101057.28;5053262;28;20035;-71
2022/11/19 10:21:05;;;;;;;38.03;24.05;;;;;;;3.29;100.00;101068.97;5034546;28;20033;-76
2022/11/19 10:23:54;;;;;;;;;;;;;;;3.43;100.00;101072.75;5052994;28;20395;-80
2022/11/19 10:26:32;;;;;;;32.85;21.45;;;;;;;3.37;100.00;101072.47;5044498;28;19912;-73
2022/11/19 10:28:58;;;;;;;32.10;22.60;;;;;;;3.34;100.00;101075.47;5052733;28;20119;-75
2022/11/19 10:31:29;;;;;;;32.47;22.20;;;;;;;3.32;100.00;101074.81;5052343;28;20429;-74
2022/11/19 10:34:05;;;;;;;33.07;22.93;;;;;;;3.33;100.00;101072.97;5052943;28;20095;-74
2022/11/19 10:36:36;;;;;;;31.48;22.10;;;;;;;3.35;100.00;101081.66;5034268;28;20468;-73
2022/11/19 10:39:03;;;;;;;33.28;22.75;;;;;;;3.34;98.91;101086.19;5052414;28;20466;-75
2022/11/19 10:42:02;;;;;;;34.08;22.70;;;;;;;3.33;100.00;101086.34;5060957;28;20028;-71
2022/11/19 10:44:43;;;;;;;32.05;20.88;;;;;;;3.35;98.37;101082.50;5071751;28;20063;-74
2022/11/19 10:47:15;;;;;;;34.53;21.38;;;;;;;3.34;96.06;101083.50;5071820;28;20024;-74
2022/11/19 10:49:41;;;;;;;36.75;22.05;;;;;;;3.29;96.80;101085.00;5072415;28;20032;-74
2022/11/19 10:52:42;;;;;;;30.98;21.95;;;;;;;3.27;99.91;101074.47;5052021;28;20052;-74
2022/11/19 10:55:27;;;;;;;33.97;21.80;;;;;;;3.21;98.25;101082.38;5043630;28;20041;-74
2022/11/19 10:58:28;;;;;;;32.72;22.35;;;;;;;3.29;99.61;101080.53;5055838;28;20025;-72
2022/11/19 11:00:55;;;;;;;33.58;21.45;;;;;;;3.23;98.22;101078.53;5029321;28;20502;-73
2022/11/19 11:03:25;;;;;;;34.30;23.20;;;;;;;3.28;100.00;101081.50;5059066;28;20040;-74
2022/11/19 11:06:05;;;;;;;39.63;28.83;;;;;;;3.29;100.00;101087.69;5072315;28;20464;-72
2022/11/19 11:08:31;;;;;;;32.65;20.60;;;;;;;3.34;99.66;101080.81;5055661;28;20127;-72
2022/11/19 11:10:57;;;;;;;31.83;21.13;;;;;;;3.34;98.59;101082.69;5060385;28;20105;-74
2022/11/19 11:16:22;;;;;;;32.53;20.88;;;;;;;3.40;100.00;101076.63;5060697;28;20101;-71
2022/11/19 11:18:48;;;;;;;29.83;20.42;;;;;;;3.40;98.27;101081.13;5039439;28;20032;-70
2022/11/19 11:21:35;;;;;;;34.72;21.52;;;;;;;3.45;100.00;101081.47;5045566;28;20037;-75
2022/11/19 11:24:03;;;;;;;35.15;24.50;;;;;;;3.37;100.00;101077.81;5076312;28;20066;-71
2022/11/19 11:26:32;;;;;;;30.25;22.92;;;;;;;3.37;100.00;101077.81;5076016;28;20024;-73
2022/11/19 11:29:13;;;;;;;38.00;28.27;;;;;;;3.39;95.31;101079.47;5057147;28;20024;-73
2022/11/19 11:31:41;;;;;;;33.33;23.85;;;;;;;3.42;99.01;101079.13;5063013;28;20048;-72
2022/11/19 11:34:27;;;;;;;29.55;21.75;;;;;;;3.44;97.36;101077.13;5055754;28;20083;-76
2022/11/19 11:36:54;;;;;;;28.08;20.85;;;;;;;3.42;96.09;101074.63;5055767;28;20558;-75
2022/11/19 11:39:29;;;;;;;30.35;20.67;;;;;;;3.44;95.76;101071.75;5055970;28;20465;-75
2022/11/19 11:41:57;;;;;;;26.88;20.13;;;;;;;3.39;94.87;101058.09;5066865;28;20029;-72
2022/11/19 11:44:26;;;;;;;27.15;19.70;;;;;;;3.36;95.15;101065.44;5057807;28;20090;-74
2022/11/19 11:46:54;;;;;;;28.08;19.38;;;;;;;3.35;95.44;101069.13;5075846;28;20036;-77
2022/11/19 11:49:28;;;;;;;24.27;17.80;;;;;;;3.38;93.66;101067.94;5075544;28;20037;-72
2022/11/19 11:52:03;;;;;;;26.08;18.55;;;;;;;3.32;93.52;101066.81;5061277;28;20028;-75